KMHL/MHL METAR and TAF weather

Enter ICAO airport designator
Station Type Date Time Source
KMHL METAR 2019/10/18 11:15 UTC NOAA

KMHL 181115Z AUTO 29005KT 10SM CLR 06/05 A2993 RMK AO2 TSNO PWINO


Station Type Date Time Source
KMHL Decoded METAR 2019/10/18 11:15 UTC NOAA

Station name not available
Oct 18, 2019 - 07:15 AM EDT / 2019.10.18 1115 UTC
Wind: from the WNW (290 degrees) at 6 MPH (5 KT):0
Visibility: 10 mile(s):0
Sky conditions: clear
Temperature: 42 F (6 C)
Dew Point: 41 F (5 C)
Relative Humidity: 93%
Pressure (altimeter): 29.93 in. Hg (1013 hPa)
ob: KMHL 181115Z AUTO 29005KT 10SM CLR 06/05 A2993 RMK AO2 TSNO PWINO
cycle: 11

Station Type Date Time Source
KMHL TAF UTC NOAA

Error!

Example: see airport list